Anchorage, Kentucky
Current Conditions -  °F | °C
As of 2:53 AM on Friday 28 Nov 2014 (Local Time) from KLOU Reporting Station
Clear Clear  
Wind Chill: 25°   Ceiling: Unl
Heat Index: 25°   Visibility: 10mi
Dew Point: 18°   Wind: 3mph
Humidity: 75%   Direction: 240°WSW
Pressure: 30.44"   Gusts: NA
Location:  38.2621°N, 85.5415°W
Report Text: KLOU 280753Z AUTO 24003KT 10SM CLR M04/M08 A3044 RMK AO2 SLP312 T10391078
Loading
Personal Weather Stations






























Interactive Weather Map New forecast layout! Learn more

10-Day Weather Forecast

Advertisements
Track Severe Weather on mobile